sensor_id;sensor_type;location;lat;lon;timestamp;P1;durP1;ratioP1;P2;durP2;ratioP2
60582;SDS011;46415;47.536;19.066;2023-02-07T00:00:26;9.35;;;6.03;;
60582;SDS011;46415;47.536;19.066;2023-02-07T00:03:29;9.07;;;5.62;;
60582;SDS011;46415;47.536;19.066;2023-02-07T00:06:33;9.15;;;5.72;;
60582;SDS011;46415;47.536;19.066;2023-02-07T00:09:37;21.42;;;6.78;;
60582;SDS011;46415;47.536;19.066;2023-02-07T00:12:40;12.23;;;6.68;;
60582;SDS011;46415;47.536;19.066;2023-02-07T00:15:43;6.57;;;5.50;;
60582;SDS011;46415;47.536;19.066;2023-02-07T00:18:46;10.13;;;5.28;;
60582;SDS011;46415;47.536;19.066;2023-02-07T00:21:49;5.95;;;5.05;;
60582;SDS011;46415;47.536;19.066;2023-02-07T00:24:52;8.07;;;6.25;;
60582;SDS011;46415;47.536;19.066;2023-02-07T00:27:55;12.10;;;5.12;;
60582;SDS011;46415;47.536;19.066;2023-02-07T00:31:05;10.23;;;5.03;;
60582;SDS011;46415;47.536;19.066;2023-02-07T00:34:10;10.88;;;7.35;;
60582;SDS011;46415;47.536;19.066;2023-02-07T00:37:13;8.35;;;4.95;;
60582;SDS011;46415;47.536;19.066;2023-02-07T00:40:16;22.35;;;6.37;;
60582;SDS011;46415;47.536;19.066;2023-02-07T00:43:20;8.88;;;4.62;;
60582;SDS011;46415;47.536;19.066;2023-02-07T00:46:31;7.60;;;4.80;;
60582;SDS011;46415;47.536;19.066;2023-02-07T00:49:35;9.32;;;5.70;;
60582;SDS011;46415;47.536;19.066;2023-02-07T00:52:39;9.07;;;5.15;;
60582;SDS011;46415;47.536;19.066;2023-02-07T00:55:42;5.30;;;3.53;;
60582;SDS011;46415;47.536;19.066;2023-02-07T00:58:45;8.13;;;4.80;;
60582;SDS011;46415;47.536;19.066;2023-02-07T01:01:48;6.47;;;4.95;;
60582;SDS011;46415;47.536;19.066;2023-02-07T01:04:51;7.75;;;6.12;;
60582;SDS011;46415;47.536;19.066;2023-02-07T01:07:53;6.28;;;4.57;;
60582;SDS011;46415;47.536;19.066;2023-02-07T01:10:56;7.32;;;5.30;;
60582;SDS011;46415;47.536;19.066;2023-02-07T01:14:04;7.40;;;6.05;;
60582;SDS011;46415;47.536;19.066;2023-02-07T01:17:07;10.30;;;6.90;;
60582;SDS011;46415;47.536;19.066;2023-02-07T01:20:09;10.00;;;5.60;;
60582;SDS011;46415;47.536;19.066;2023-02-07T01:23:13;21.25;;;5.25;;
60582;SDS011;46415;47.536;19.066;2023-02-07T01:26:16;15.57;;;5.75;;
60582;SDS011;46415;47.536;19.066;2023-02-07T01:29:19;12.57;;;5.30;;
60582;SDS011;46415;47.536;19.066;2023-02-07T01:32:22;9.20;;;5.68;;
60582;SDS011;46415;47.536;19.066;2023-02-07T01:35:25;6.65;;;5.80;;
60582;SDS011;46415;47.536;19.066;2023-02-07T01:38:28;4.20;;;3.70;;
60582;SDS011;46415;47.536;19.066;2023-02-07T01:41:31;10.70;;;5.87;;
60582;SDS011;46415;47.536;19.066;2023-02-07T01:47:39;18.85;;;5.12;;
60582;SDS011;46415;47.536;19.066;2023-02-07T01:50:46;5.87;;;4.93;;
60582;SDS011;46415;47.536;19.066;2023-02-07T01:53:52;5.07;;;4.57;;
60582;SDS011;46415;47.536;19.066;2023-02-07T01:56:57;13.40;;;5.53;;
60582;SDS011;46415;47.536;19.066;2023-02-07T02:00:05;12.27;;;5.65;;
60582;SDS011;46415;47.536;19.066;2023-02-07T02:03:16;11.20;;;6.18;;
60582;SDS011;46415;47.536;19.066;2023-02-07T02:06:19;11.05;;;5.45;;
60582;SDS011;46415;47.536;19.066;2023-02-07T02:09:23;7.05;;;5.78;;
60582;SDS011;46415;47.536;19.066;2023-02-07T02:13:30;7.50;;;5.30;;
60582;SDS011;46415;47.536;19.066;2023-02-07T02:26:36;15.02;;;4.20;;
60582;SDS011;46415;47.536;19.066;2023-02-07T02:32:58;11.25;;;5.25;;
60582;SDS011;46415;47.536;19.066;2023-02-07T02:40:04;11.63;;;6.53;;
60582;SDS011;46415;47.536;19.066;2023-02-07T02:46:37;7.97;;;4.47;;
60582;SDS011;46415;47.536;19.066;2023-02-07T02:49:43;8.43;;;5.15;;
60582;SDS011;46415;47.536;19.066;2023-02-07T02:52:46;4.30;;;3.58;;
60582;SDS011;46415;47.536;19.066;2023-02-07T02:59:06;5.35;;;3.90;;
60582;SDS011;46415;47.536;19.066;2023-02-07T03:02:34;5.97;;;4.95;;
60582;SDS011;46415;47.536;19.066;2023-02-07T03:12:47;4.57;;;4.15;;
60582;SDS011;46415;47.536;19.066;2023-02-07T03:16:33;4.20;;;3.95;;
60582;SDS011;46415;47.536;19.066;2023-02-07T03:23:28;4.53;;;3.65;;
60582;SDS011;46415;47.536;19.066;2023-02-07T03:26:32;5.03;;;3.97;;
60582;SDS011;46415;47.536;19.066;2023-02-07T03:29:36;11.48;;;3.42;;
60582;SDS011;46415;47.536;19.066;2023-02-07T03:32:43;6.85;;;6.00;;
60582;SDS011;46415;47.536;19.066;2023-02-07T03:35:59;6.70;;;6.05;;
60582;SDS011;46415;47.536;19.066;2023-02-07T03:39:10;11.35;;;5.90;;
60582;SDS011;46415;47.536;19.066;2023-02-07T03:42:20;11.63;;;5.32;;
60582;SDS011;46415;47.536;19.066;2023-02-07T03:45:29;11.90;;;5.12;;
60582;SDS011;46415;47.536;19.066;2023-02-07T03:48:32;4.20;;;3.22;;
60582;SDS011;46415;47.536;19.066;2023-02-07T03:51:35;15.35;;;5.12;;
60582;SDS011;46415;47.536;19.066;2023-02-07T03:54:38;5.90;;;4.68;;
60582;SDS011;46415;47.536;19.066;2023-02-07T03:57:41;4.60;;;4.22;;
60582;SDS011;46415;47.536;19.066;2023-02-07T04:00:44;8.00;;;5.65;;
60582;SDS011;46415;47.536;19.066;2023-02-07T04:03:47;5.62;;;4.35;;
60582;SDS011;46415;47.536;19.066;2023-02-07T04:06:50;6.62;;;4.15;;
60582;SDS011;46415;47.536;19.066;2023-02-07T04:09:53;9.18;;;5.25;;
60582;SDS011;46415;47.536;19.066;2023-02-07T04:12:55;6.40;;;5.78;;
60582;SDS011;46415;47.536;19.066;2023-02-07T04:15:58;8.18;;;4.70;;
60582;SDS011;46415;47.536;19.066;2023-02-07T04:19:01;6.12;;;4.10;;
60582;SDS011;46415;47.536;19.066;2023-02-07T04:22:04;8.65;;;6.57;;
60582;SDS011;46415;47.536;19.066;2023-02-07T04:25:12;4.10;;;3.62;;
60582;SDS011;46415;47.536;19.066;2023-02-07T04:28:15;7.75;;;4.50;;
60582;SDS011;46415;47.536;19.066;2023-02-07T04:31:17;6.85;;;4.07;;
60582;SDS011;46415;47.536;19.066;2023-02-07T04:34:21;6.70;;;4.55;;
60582;SDS011;46415;47.536;19.066;2023-02-07T04:37:23;6.05;;;3.83;;
60582;SDS011;46415;47.536;19.066;2023-02-07T04:40:26;4.32;;;3.92;;
60582;SDS011;46415;47.536;19.066;2023-02-07T04:43:30;10.02;;;5.45;;
60582;SDS011;46415;47.536;19.066;2023-02-07T04:46:34;7.43;;;5.00;;
60582;SDS011;46415;47.536;19.066;2023-02-07T04:49:36;4.28;;;3.90;;
60582;SDS011;46415;47.536;19.066;2023-02-07T04:52:39;6.03;;;3.60;;
60582;SDS011;46415;47.536;19.066;2023-02-07T04:55:42;6.20;;;4.37;;
60582;SDS011;46415;47.536;19.066;2023-02-07T04:58:50;9.95;;;5.10;;
60582;SDS011;46415;47.536;19.066;2023-02-07T05:01:52;5.70;;;4.22;;
60582;SDS011;46415;47.536;19.066;2023-02-07T05:04:55;3.70;;;3.47;;
60582;SDS011;46415;47.536;19.066;2023-02-07T05:07:58;10.77;;;4.60;;
60582;SDS011;46415;47.536;19.066;2023-02-07T05:11:01;4.47;;;4.03;;
60582;SDS011;46415;47.536;19.066;2023-02-07T05:14:05;4.32;;;3.92;;
60582;SDS011;46415;47.536;19.066;2023-02-07T05:17:08;3.92;;;3.17;;
60582;SDS011;46415;47.536;19.066;2023-02-07T05:20:11;3.45;;;3.17;;
60582;SDS011;46415;47.536;19.066;2023-02-07T05:23:16;6.15;;;4.60;;
60582;SDS011;46415;47.536;19.066;2023-02-07T05:26:19;4.10;;;3.65;;
60582;SDS011;46415;47.536;19.066;2023-02-07T05:29:22;4.93;;;4.62;;
60582;SDS011;46415;47.536;19.066;2023-02-07T05:32:24;5.35;;;4.90;;
60582;SDS011;46415;47.536;19.066;2023-02-07T05:35:46;7.18;;;4.40;;
60582;SDS011;46415;47.536;19.066;2023-02-07T05:38:48;3.70;;;3.22;;
60582;SDS011;46415;47.536;19.066;2023-02-07T05:41:51;8.32;;;5.15;;
60582;SDS011;46415;47.536;19.066;2023-02-07T05:44:54;10.57;;;4.72;;
60582;SDS011;46415;47.536;19.066;2023-02-07T05:47:57;6.32;;;4.43;;
60582;SDS011;46415;47.536;19.066;2023-02-07T05:51:00;6.30;;;4.10;;
60582;SDS011;46415;47.536;19.066;2023-02-07T05:54:03;2.85;;;2.47;;
60582;SDS011;46415;47.536;19.066;2023-02-07T05:57:05;9.20;;;4.53;;
60582;SDS011;46415;47.536;19.066;2023-02-07T06:00:09;6.10;;;4.40;;
60582;SDS011;46415;47.536;19.066;2023-02-07T06:03:14;6.62;;;5.32;;
60582;SDS011;46415;47.536;19.066;2023-02-07T06:06:17;12.05;;;4.20;;
60582;SDS011;46415;47.536;19.066;2023-02-07T06:09:20;5.65;;;3.97;;
60582;SDS011;46415;47.536;19.066;2023-02-07T06:12:23;7.97;;;5.87;;
60582;SDS011;46415;47.536;19.066;2023-02-07T06:15:26;5.00;;;3.55;;
60582;SDS011;46415;47.536;19.066;2023-02-07T06:18:29;5.00;;;4.22;;
60582;SDS011;46415;47.536;19.066;2023-02-07T06:21:32;4.72;;;4.32;;
60582;SDS011;46415;47.536;19.066;2023-02-07T06:24:47;5.72;;;3.78;;
60582;SDS011;46415;47.536;19.066;2023-02-07T06:27:50;7.03;;;5.20;;
60582;SDS011;46415;47.536;19.066;2023-02-07T06:30:53;6.35;;;4.87;;
60582;SDS011;46415;47.536;19.066;2023-02-07T06:33:56;7.30;;;5.97;;
60582;SDS011;46415;47.536;19.066;2023-02-07T06:36:59;6.18;;;4.85;;
60582;SDS011;46415;47.536;19.066;2023-02-07T06:40:02;12.20;;;5.55;;
60582;SDS011;46415;47.536;19.066;2023-02-07T06:43:05;4.70;;;4.25;;
60582;SDS011;46415;47.536;19.066;2023-02-07T06:46:10;9.82;;;6.25;;
60582;SDS011;46415;47.536;19.066;2023-02-07T06:49:13;4.28;;;3.95;;
60582;SDS011;46415;47.536;19.066;2023-02-07T06:52:16;8.43;;;5.05;;
60582;SDS011;46415;47.536;19.066;2023-02-07T06:55:19;6.37;;;4.85;;
60582;SDS011;46415;47.536;19.066;2023-02-07T06:58:22;9.02;;;7.87;;
60582;SDS011;46415;47.536;19.066;2023-02-07T07:01:25;6.50;;;5.85;;
60582;SDS011;46415;47.536;19.066;2023-02-07T07:04:28;7.10;;;6.40;;
60582;SDS011;46415;47.536;19.066;2023-02-07T07:07:31;7.10;;;5.97;;
60582;SDS011;46415;47.536;19.066;2023-02-07T07:10:34;7.20;;;4.97;;
60582;SDS011;46415;47.536;19.066;2023-02-07T07:13:37;7.55;;;4.53;;
60582;SDS011;46415;47.536;19.066;2023-02-07T07:16:40;7.50;;;5.85;;
60582;SDS011;46415;47.536;19.066;2023-02-07T07:19:43;4.82;;;4.37;;
60582;SDS011;46415;47.536;19.066;2023-02-07T07:22:47;8.43;;;4.97;;
60582;SDS011;46415;47.536;19.066;2023-02-07T07:25:50;10.80;;;6.10;;
60582;SDS011;46415;47.536;19.066;2023-02-07T07:28:52;9.10;;;5.60;;
60582;SDS011;46415;47.536;19.066;2023-02-07T07:31:59;6.07;;;5.18;;
60582;SDS011;46415;47.536;19.066;2023-02-07T07:35:03;7.43;;;5.32;;
60582;SDS011;46415;47.536;19.066;2023-02-07T07:38:06;12.27;;;5.05;;
60582;SDS011;46415;47.536;19.066;2023-02-07T07:41:10;9.68;;;6.57;;
60582;SDS011;46415;47.536;19.066;2023-02-07T07:44:12;10.73;;;6.22;;
60582;SDS011;46415;47.536;19.066;2023-02-07T07:47:15;11.10;;;6.00;;
60582;SDS011;46415;47.536;19.066;2023-02-07T07:50:18;10.05;;;6.28;;
60582;SDS011;46415;47.536;19.066;2023-02-07T07:53:21;12.40;;;6.37;;
60582;SDS011;46415;47.536;19.066;2023-02-07T07:56:23;13.77;;;6.55;;
60582;SDS011;46415;47.536;19.066;2023-02-07T07:59:27;10.13;;;6.22;;
60582;SDS011;46415;47.536;19.066;2023-02-07T08:02:30;8.13;;;5.47;;
60582;SDS011;46415;47.536;19.066;2023-02-07T08:05:33;6.68;;;6.07;;
60582;SDS011;46415;47.536;19.066;2023-02-07T08:08:36;6.82;;;5.10;;
60582;SDS011;46415;47.536;19.066;2023-02-07T08:11:39;5.57;;;5.05;;
60582;SDS011;46415;47.536;19.066;2023-02-07T08:14:42;16.42;;;7.57;;
60582;SDS011;46415;47.536;19.066;2023-02-07T08:17:45;8.40;;;6.25;;
60582;SDS011;46415;47.536;19.066;2023-02-07T08:20:48;10.57;;;6.82;;
60582;SDS011;46415;47.536;19.066;2023-02-07T08:23:52;8.00;;;4.80;;
60582;SDS011;46415;47.536;19.066;2023-02-07T08:26:55;14.43;;;6.53;;
60582;SDS011;46415;47.536;19.066;2023-02-07T08:29:58;9.25;;;6.43;;
60582;SDS011;46415;47.536;19.066;2023-02-07T08:33:02;9.48;;;5.93;;
60582;SDS011;46415;47.536;19.066;2023-02-07T08:36:05;14.77;;;7.03;;
60582;SDS011;46415;47.536;19.066;2023-02-07T08:39:10;8.27;;;6.70;;
60582;SDS011;46415;47.536;19.066;2023-02-07T08:42:13;18.92;;;8.73;;
60582;SDS011;46415;47.536;19.066;2023-02-07T08:45:16;10.85;;;6.85;;
60582;SDS011;46415;47.536;19.066;2023-02-07T08:48:19;17.45;;;8.25;;
60582;SDS011;46415;47.536;19.066;2023-02-07T08:51:23;14.20;;;7.70;;
60582;SDS011;46415;47.536;19.066;2023-02-07T08:54:26;10.10;;;6.60;;
60582;SDS011;46415;47.536;19.066;2023-02-07T08:57:29;15.45;;;8.88;;
60582;SDS011;46415;47.536;19.066;2023-02-07T09:00:36;14.40;;;8.15;;
60582;SDS011;46415;47.536;19.066;2023-02-07T09:03:39;12.75;;;7.85;;
60582;SDS011;46415;47.536;19.066;2023-02-07T09:06:42;12.57;;;7.70;;
60582;SDS011;46415;47.536;19.066;2023-02-07T09:09:45;18.62;;;6.97;;
60582;SDS011;46415;47.536;19.066;2023-02-07T09:12:49;16.15;;;6.78;;
60582;SDS011;46415;47.536;19.066;2023-02-07T09:15:54;16.35;;;7.80;;
60582;SDS011;46415;47.536;19.066;2023-02-07T09:18:58;14.43;;;8.65;;
60582;SDS011;46415;47.536;19.066;2023-02-07T09:22:01;16.27;;;8.43;;
60582;SDS011;46415;47.536;19.066;2023-02-07T09:25:05;10.40;;;6.60;;
60582;SDS011;46415;47.536;19.066;2023-02-07T09:28:08;16.12;;;8.45;;
60582;SDS011;46415;47.536;19.066;2023-02-07T09:31:12;13.15;;;8.40;;
60582;SDS011;46415;47.536;19.066;2023-02-07T09:34:16;12.75;;;7.22;;
60582;SDS011;46415;47.536;19.066;2023-02-07T09:37:20;13.90;;;7.55;;
60582;SDS011;46415;47.536;19.066;2023-02-07T09:40:27;12.60;;;6.90;;
60582;SDS011;46415;47.536;19.066;2023-02-07T09:46:59;10.50;;;7.32;;
60582;SDS011;46415;47.536;19.066;2023-02-07T09:50:27;14.18;;;6.70;;
60582;SDS011;46415;47.536;19.066;2023-02-07T09:53:40;12.55;;;7.40;;
60582;SDS011;46415;47.536;19.066;2023-02-07T09:56:47;11.25;;;5.95;;
60582;SDS011;46415;47.536;19.066;2023-02-07T09:59:54;11.40;;;6.18;;
60582;SDS011;46415;47.536;19.066;2023-02-07T10:06:19;9.00;;;6.30;;
60582;SDS011;46415;47.536;19.066;2023-02-07T10:09:32;11.95;;;7.60;;
60582;SDS011;46415;47.536;19.066;2023-02-07T10:12:53;12.02;;;6.95;;
60582;SDS011;46415;47.536;19.066;2023-02-07T10:22:37;13.10;;;7.12;;
60582;SDS011;46415;47.536;19.066;2023-02-07T10:32:42;13.10;;;6.90;;
60582;SDS011;46415;47.536;19.066;2023-02-07T10:35:48;11.85;;;7.10;;
60582;SDS011;46415;47.536;19.066;2023-02-07T10:39:00;13.05;;;7.03;;
60582;SDS011;46415;47.536;19.066;2023-02-07T10:42:13;11.45;;;7.15;;
60582;SDS011;46415;47.536;19.066;2023-02-07T10:45:17;10.00;;;6.43;;
60582;SDS011;46415;47.536;19.066;2023-02-07T10:48:21;11.40;;;5.97;;
60582;SDS011;46415;47.536;19.066;2023-02-07T10:51:38;9.90;;;6.37;;
60582;SDS011;46415;47.536;19.066;2023-02-07T10:55:05;7.80;;;3.95;;
60582;SDS011;46415;47.536;19.066;2023-02-07T10:58:15;9.60;;;6.03;;
60582;SDS011;46415;47.536;19.066;2023-02-07T11:01:26;8.40;;;5.12;;
60582;SDS011;46415;47.536;19.066;2023-02-07T11:04:34;10.43;;;5.50;;
60582;SDS011;46415;47.536;19.066;2023-02-07T11:07:38;10.65;;;5.12;;
60582;SDS011;46415;47.536;19.066;2023-02-07T11:10:50;10.80;;;4.95;;
60582;SDS011;46415;47.536;19.066;2023-02-07T11:13:54;10.18;;;5.68;;
60582;SDS011;46415;47.536;19.066;2023-02-07T11:17:05;10.18;;;6.47;;
60582;SDS011;46415;47.536;19.066;2023-02-07T11:20:10;9.18;;;5.30;;
60582;SDS011;46415;47.536;19.066;2023-02-07T11:23:41;8.55;;;5.25;;
60582;SDS011;46415;47.536;19.066;2023-02-07T11:30:08;6.15;;;4.87;;
60582;SDS011;46415;47.536;19.066;2023-02-07T11:33:23;11.52;;;5.40;;
60582;SDS011;46415;47.536;19.066;2023-02-07T11:36:29;7.50;;;4.75;;
60582;SDS011;46415;47.536;19.066;2023-02-07T11:39:34;7.47;;;4.85;;
60582;SDS011;46415;47.536;19.066;2023-02-07T11:42:38;8.05;;;4.55;;
60582;SDS011;46415;47.536;19.066;2023-02-07T11:45:42;6.62;;;4.37;;
60582;SDS011;46415;47.536;19.066;2023-02-07T11:48:47;7.47;;;4.62;;
60582;SDS011;46415;47.536;19.066;2023-02-07T11:51:55;10.00;;;5.15;;
60582;SDS011;46415;47.536;19.066;2023-02-07T11:55:01;7.62;;;3.85;;
60582;SDS011;46415;47.536;19.066;2023-02-07T11:58:31;7.25;;;4.75;;
60582;SDS011;46415;47.536;19.066;2023-02-07T12:01:38;6.62;;;3.90;;
60582;SDS011;46415;47.536;19.066;2023-02-07T12:04:41;7.20;;;3.90;;
60582;SDS011;46415;47.536;19.066;2023-02-07T12:07:46;7.95;;;4.20;;
60582;SDS011;46415;47.536;19.066;2023-02-07T12:10:55;12.43;;;5.18;;
60582;SDS011;46415;47.536;19.066;2023-02-07T12:14:07;13.38;;;5.70;;
60582;SDS011;46415;47.536;19.066;2023-02-07T12:17:20;10.38;;;4.07;;
60582;SDS011;46415;47.536;19.066;2023-02-07T12:20:36;7.53;;;4.62;;
60582;SDS011;46415;47.536;19.066;2023-02-07T12:27:12;11.75;;;5.15;;
60582;SDS011;46415;47.536;19.066;2023-02-07T12:30:33;8.60;;;4.70;;
60582;SDS011;46415;47.536;19.066;2023-02-07T12:33:48;9.90;;;4.82;;
60582;SDS011;46415;47.536;19.066;2023-02-07T12:37:02;7.25;;;5.65;;
60582;SDS011;46415;47.536;19.066;2023-02-07T12:43:27;10.05;;;4.85;;
60582;SDS011;46415;47.536;19.066;2023-02-07T12:50:02;8.43;;;4.93;;
60582;SDS011;46415;47.536;19.066;2023-02-07T13:00:05;6.75;;;5.07;;
60582;SDS011;46415;47.536;19.066;2023-02-07T13:03:24;6.70;;;4.37;;
60582;SDS011;46415;47.536;19.066;2023-02-07T13:13:31;8.45;;;4.68;;
60582;SDS011;46415;47.536;19.066;2023-02-07T13:23:29;7.47;;;4.30;;
60582;SDS011;46415;47.536;19.066;2023-02-07T13:26:34;8.45;;;4.93;;
60582;SDS011;46415;47.536;19.066;2023-02-07T13:29:38;11.45;;;5.03;;
60582;SDS011;46415;47.536;19.066;2023-02-07T13:32:42;7.70;;;5.25;;
60582;SDS011;46415;47.536;19.066;2023-02-07T13:35:46;8.63;;;5.60;;
60582;SDS011;46415;47.536;19.066;2023-02-07T13:42:23;8.40;;;5.95;;
60582;SDS011;46415;47.536;19.066;2023-02-07T13:49:10;10.13;;;5.65;;
60582;SDS011;46415;47.536;19.066;2023-02-07T13:52:25;6.87;;;5.25;;
60582;SDS011;46415;47.536;19.066;2023-02-07T13:55:37;10.52;;;5.57;;
60582;SDS011;46415;47.536;19.066;2023-02-07T14:02:15;12.43;;;5.97;;
60582;SDS011;46415;47.536;19.066;2023-02-07T14:08:26;8.13;;;5.68;;
60582;SDS011;46415;47.536;19.066;2023-02-07T14:11:34;9.70;;;5.12;;
60582;SDS011;46415;47.536;19.066;2023-02-07T14:14:46;11.70;;;5.95;;
60582;SDS011;46415;47.536;19.066;2023-02-07T14:18:04;11.63;;;5.72;;
60582;SDS011;46415;47.536;19.066;2023-02-07T14:21:29;9.77;;;6.15;;
60582;SDS011;46415;47.536;19.066;2023-02-07T14:24:33;10.68;;;5.78;;
60582;SDS011;46415;47.536;19.066;2023-02-07T14:28:05;11.15;;;5.97;;
60582;SDS011;46415;47.536;19.066;2023-02-07T14:31:18;10.05;;;5.28;;
60582;SDS011;46415;47.536;19.066;2023-02-07T14:34:28;10.10;;;5.90;;
60582;SDS011;46415;47.536;19.066;2023-02-07T14:41:13;13.10;;;6.80;;
60582;SDS011;46415;47.536;19.066;2023-02-07T14:44:22;11.30;;;6.32;;
60582;SDS011;46415;47.536;19.066;2023-02-07T14:47:26;14.87;;;8.13;;
60582;SDS011;46415;47.536;19.066;2023-02-07T14:50:31;18.10;;;10.57;;
60582;SDS011;46415;47.536;19.066;2023-02-07T14:53:37;16.30;;;10.38;;
60582;SDS011;46415;47.536;19.066;2023-02-07T14:56:48;16.77;;;10.82;;
60582;SDS011;46415;47.536;19.066;2023-02-07T15:00:01;17.20;;;8.25;;
60582;SDS011;46415;47.536;19.066;2023-02-07T15:03:17;18.80;;;10.38;;
60582;SDS011;46415;47.536;19.066;2023-02-07T15:06:21;14.98;;;9.32;;
60582;SDS011;46415;47.536;19.066;2023-02-07T15:09:34;17.55;;;7.93;;
60582;SDS011;46415;47.536;19.066;2023-02-07T15:12:36;14.95;;;8.48;;
60582;SDS011;46415;47.536;19.066;2023-02-07T15:15:47;15.43;;;8.40;;
60582;SDS011;46415;47.536;19.066;2023-02-07T15:19:13;16.33;;;7.97;;
60582;SDS011;46415;47.536;19.066;2023-02-07T15:22:25;14.20;;;7.75;;
60582;SDS011;46415;47.536;19.066;2023-02-07T15:25:30;13.65;;;6.15;;
60582;SDS011;46415;47.536;19.066;2023-02-07T15:28:34;13.18;;;7.40;;
60582;SDS011;46415;47.536;19.066;2023-02-07T15:31:38;12.73;;;6.97;;
60582;SDS011;46415;47.536;19.066;2023-02-07T15:34:42;14.80;;;7.90;;
60582;SDS011;46415;47.536;19.066;2023-02-07T15:37:46;17.30;;;6.22;;
60582;SDS011;46415;47.536;19.066;2023-02-07T15:40:50;16.80;;;8.13;;
60582;SDS011;46415;47.536;19.066;2023-02-07T15:43:59;10.15;;;6.07;;
60582;SDS011;46415;47.536;19.066;2023-02-07T15:47:11;14.15;;;6.78;;
60582;SDS011;46415;47.536;19.066;2023-02-07T15:50:32;11.15;;;6.82;;
60582;SDS011;46415;47.536;19.066;2023-02-07T15:53:36;12.45;;;6.65;;
60582;SDS011;46415;47.536;19.066;2023-02-07T15:56:39;8.90;;;5.50;;
60582;SDS011;46415;47.536;19.066;2023-02-07T15:59:48;12.43;;;7.28;;
60582;SDS011;46415;47.536;19.066;2023-02-07T16:03:05;10.63;;;7.40;;
60582;SDS011;46415;47.536;19.066;2023-02-07T16:06:20;11.75;;;6.45;;
60582;SDS011;46415;47.536;19.066;2023-02-07T16:09:32;10.25;;;5.72;;
60582;SDS011;46415;47.536;19.066;2023-02-07T16:12:46;9.32;;;5.40;;
60582;SDS011;46415;47.536;19.066;2023-02-07T16:15:59;11.43;;;5.12;;
60582;SDS011;46415;47.536;19.066;2023-02-07T16:22:17;14.68;;;7.25;;
60582;SDS011;46415;47.536;19.066;2023-02-07T16:25:28;11.68;;;6.68;;
60582;SDS011;46415;47.536;19.066;2023-02-07T16:28:33;7.97;;;5.47;;
60582;SDS011;46415;47.536;19.066;2023-02-07T16:31:36;9.77;;;5.95;;
60582;SDS011;46415;47.536;19.066;2023-02-07T16:34:40;13.82;;;6.40;;
60582;SDS011;46415;47.536;19.066;2023-02-07T16:38:01;11.20;;;6.35;;
60582;SDS011;46415;47.536;19.066;2023-02-07T16:41:04;11.18;;;6.10;;
60582;SDS011;46415;47.536;19.066;2023-02-07T16:44:09;9.73;;;5.82;;
60582;SDS011;46415;47.536;19.066;2023-02-07T16:47:16;14.90;;;5.30;;
60582;SDS011;46415;47.536;19.066;2023-02-07T16:50:22;8.20;;;5.60;;
60582;SDS011;46415;47.536;19.066;2023-02-07T16:53:26;10.65;;;5.15;;
60582;SDS011;46415;47.536;19.066;2023-02-07T16:56:29;12.70;;;6.22;;
60582;SDS011;46415;47.536;19.066;2023-02-07T16:59:33;8.60;;;5.87;;
60582;SDS011;46415;47.536;19.066;2023-02-07T17:02:36;12.35;;;5.60;;
60582;SDS011;46415;47.536;19.066;2023-02-07T17:05:38;7.32;;;4.87;;
60582;SDS011;46415;47.536;19.066;2023-02-07T17:08:41;12.25;;;6.32;;
60582;SDS011;46415;47.536;19.066;2023-02-07T17:11:45;8.77;;;6.05;;
60582;SDS011;46415;47.536;19.066;2023-02-07T17:14:48;12.98;;;5.65;;
60582;SDS011;46415;47.536;19.066;2023-02-07T17:17:51;12.30;;;5.68;;
60582;SDS011;46415;47.536;19.066;2023-02-07T17:20:55;13.18;;;6.70;;
60582;SDS011;46415;47.536;19.066;2023-02-07T17:23:58;8.90;;;6.95;;
60582;SDS011;46415;47.536;19.066;2023-02-07T17:27:01;13.70;;;7.07;;
60582;SDS011;46415;47.536;19.066;2023-02-07T17:30:05;13.13;;;7.25;;
60582;SDS011;46415;47.536;19.066;2023-02-07T17:33:19;11.80;;;6.37;;
60582;SDS011;46415;47.536;19.066;2023-02-07T17:36:22;15.52;;;8.32;;
60582;SDS011;46415;47.536;19.066;2023-02-07T17:39:25;14.27;;;7.97;;
60582;SDS011;46415;47.536;19.066;2023-02-07T17:42:28;12.40;;;6.78;;
60582;SDS011;46415;47.536;19.066;2023-02-07T17:45:32;13.05;;;7.72;;
60582;SDS011;46415;47.536;19.066;2023-02-07T17:48:36;11.18;;;7.20;;
60582;SDS011;46415;47.536;19.066;2023-02-07T17:51:40;10.55;;;7.22;;
60582;SDS011;46415;47.536;19.066;2023-02-07T17:54:43;12.15;;;7.87;;
60582;SDS011;46415;47.536;19.066;2023-02-07T17:57:48;14.55;;;7.37;;
60582;SDS011;46415;47.536;19.066;2023-02-07T18:00:52;11.85;;;7.15;;
60582;SDS011;46415;47.536;19.066;2023-02-07T18:03:55;17.92;;;8.25;;
60582;SDS011;46415;47.536;19.066;2023-02-07T18:06:58;15.45;;;6.90;;
60582;SDS011;46415;47.536;19.066;2023-02-07T18:10:02;9.85;;;6.80;;
60582;SDS011;46415;47.536;19.066;2023-02-07T18:13:08;10.98;;;8.02;;
60582;SDS011;46415;47.536;19.066;2023-02-07T18:16:19;14.75;;;7.70;;
60582;SDS011;46415;47.536;19.066;2023-02-07T18:19:24;18.10;;;7.57;;
60582;SDS011;46415;47.536;19.066;2023-02-07T18:22:27;19.10;;;9.15;;
60582;SDS011;46415;47.536;19.066;2023-02-07T18:25:30;15.23;;;8.25;;
60582;SDS011;46415;47.536;19.066;2023-02-07T18:28:34;10.55;;;8.45;;
60582;SDS011;46415;47.536;19.066;2023-02-07T18:31:38;16.05;;;9.18;;
60582;SDS011;46415;47.536;19.066;2023-02-07T18:34:42;9.85;;;7.37;;
60582;SDS011;46415;47.536;19.066;2023-02-07T18:37:46;11.12;;;6.37;;
60582;SDS011;46415;47.536;19.066;2023-02-07T18:40:49;15.02;;;7.10;;
60582;SDS011;46415;47.536;19.066;2023-02-07T18:43:53;8.32;;;7.45;;
60582;SDS011;46415;47.536;19.066;2023-02-07T18:46:56;13.13;;;8.30;;
60582;SDS011;46415;47.536;19.066;2023-02-07T18:49:59;14.23;;;8.02;;
60582;SDS011;46415;47.536;19.066;2023-02-07T18:53:03;16.30;;;10.10;;
60582;SDS011;46415;47.536;19.066;2023-02-07T18:56:10;11.85;;;9.38;;
60582;SDS011;46415;47.536;19.066;2023-02-07T18:59:19;16.48;;;6.87;;
60582;SDS011;46415;47.536;19.066;2023-02-07T19:02:23;12.07;;;8.70;;
60582;SDS011;46415;47.536;19.066;2023-02-07T19:05:29;8.43;;;7.22;;
60582;SDS011;46415;47.536;19.066;2023-02-07T19:08:32;13.52;;;7.18;;
60582;SDS011;46415;47.536;19.066;2023-02-07T19:11:36;24.83;;;9.38;;
60582;SDS011;46415;47.536;19.066;2023-02-07T19:14:40;13.00;;;7.97;;
60582;SDS011;46415;47.536;19.066;2023-02-07T19:17:43;17.50;;;7.57;;
60582;SDS011;46415;47.536;19.066;2023-02-07T19:20:48;11.82;;;8.45;;
60582;SDS011;46415;47.536;19.066;2023-02-07T19:23:52;13.62;;;7.93;;
60582;SDS011;46415;47.536;19.066;2023-02-07T19:26:56;13.68;;;6.97;;
60582;SDS011;46415;47.536;19.066;2023-02-07T19:30:00;13.32;;;6.28;;
60582;SDS011;46415;47.536;19.066;2023-02-07T19:33:06;14.90;;;9.82;;
60582;SDS011;46415;47.536;19.066;2023-02-07T19:36:10;15.27;;;6.55;;
60582;SDS011;46415;47.536;19.066;2023-02-07T19:39:14;13.48;;;7.28;;
60582;SDS011;46415;47.536;19.066;2023-02-07T19:42:17;8.23;;;5.95;;
60582;SDS011;46415;47.536;19.066;2023-02-07T19:45:20;16.05;;;7.95;;
60582;SDS011;46415;47.536;19.066;2023-02-07T19:48:23;16.05;;;6.30;;
60582;SDS011;46415;47.536;19.066;2023-02-07T19:51:26;12.60;;;7.05;;
60582;SDS011;46415;47.536;19.066;2023-02-07T19:54:32;13.00;;;8.35;;
60582;SDS011;46415;47.536;19.066;2023-02-07T19:57:35;14.35;;;7.12;;
60582;SDS011;46415;47.536;19.066;2023-02-07T20:00:38;14.30;;;8.75;;
60582;SDS011;46415;47.536;19.066;2023-02-07T20:03:42;10.68;;;6.93;;
60582;SDS011;46415;47.536;19.066;2023-02-07T20:06:45;12.70;;;7.37;;
60582;SDS011;46415;47.536;19.066;2023-02-07T20:09:49;11.65;;;7.57;;